sensor_id;sensor_type;location;lat;lon;timestamp;P1;durP1;ratioP1;P2;durP2;ratioP2
23044;SDS011;11690;51.716;23.066;2022-09-12T00:01:52;3.03;;;2.20;;
23044;SDS011;11690;51.716;23.066;2022-09-12T00:04:19;4.28;;;2.45;;
23044;SDS011;11690;51.716;23.066;2022-09-12T00:06:46;2.50;;;2.03;;
23044;SDS011;11690;51.716;23.066;2022-09-12T00:09:13;3.35;;;2.30;;
23044;SDS011;11690;51.716;23.066;2022-09-12T00:11:43;2.65;;;2.45;;
23044;SDS011;11690;51.716;23.066;2022-09-12T00:14:15;3.67;;;2.20;;
23044;SDS011;11690;51.716;23.066;2022-09-12T00:16:43;3.47;;;2.47;;
23044;SDS011;11690;51.716;23.066;2022-09-12T00:19:10;3.20;;;2.50;;
23044;SDS011;11690;51.716;23.066;2022-09-12T00:21:38;2.90;;;2.30;;
23044;SDS011;11690;51.716;23.066;2022-09-12T00:24:06;3.13;;;2.40;;
23044;SDS011;11690;51.716;23.066;2022-09-12T00:26:33;2.58;;;2.20;;
23044;SDS011;11690;51.716;23.066;2022-09-12T00:29:00;3.28;;;2.40;;
23044;SDS011;11690;51.716;23.066;2022-09-12T00:31:27;3.53;;;2.30;;
23044;SDS011;11690;51.716;23.066;2022-09-12T00:33:55;1.90;;;1.80;;
23044;SDS011;11690;51.716;23.066;2022-09-12T00:36:25;3.53;;;2.08;;
23044;SDS011;11690;51.716;23.066;2022-09-12T00:38:52;2.63;;;1.95;;
23044;SDS011;11690;51.716;23.066;2022-09-12T00:41:21;2.17;;;1.90;;
23044;SDS011;11690;51.716;23.066;2022-09-12T00:43:51;2.65;;;1.48;;
23044;SDS011;11690;51.716;23.066;2022-09-12T00:46:39;2.63;;;1.85;;
23044;SDS011;11690;51.716;23.066;2022-09-12T00:49:11;4.07;;;2.13;;
23044;SDS011;11690;51.716;23.066;2022-09-12T00:51:39;3.28;;;2.08;;
23044;SDS011;11690;51.716;23.066;2022-09-12T00:54:11;2.33;;;2.00;;
23044;SDS011;11690;51.716;23.066;2022-09-12T00:56:42;2.85;;;2.00;;
23044;SDS011;11690;51.716;23.066;2022-09-12T00:59:11;2.33;;;2.13;;
23044;SDS011;11690;51.716;23.066;2022-09-12T01:01:41;4.07;;;2.40;;
23044;SDS011;11690;51.716;23.066;2022-09-12T01:04:09;2.45;;;2.25;;
23044;SDS011;11690;51.716;23.066;2022-09-12T01:06:41;3.08;;;2.40;;
23044;SDS011;11690;51.716;23.066;2022-09-12T01:09:10;2.75;;;2.30;;
23044;SDS011;11690;51.716;23.066;2022-09-12T01:11:40;5.10;;;2.28;;
23044;SDS011;11690;51.716;23.066;2022-09-12T01:14:12;2.88;;;2.13;;
23044;SDS011;11690;51.716;23.066;2022-09-12T01:16:40;4.22;;;2.25;;
23044;SDS011;11690;51.716;23.066;2022-09-12T01:19:27;3.22;;;2.10;;
23044;SDS011;11690;51.716;23.066;2022-09-12T01:28:35;3.20;;;2.08;;
23044;SDS011;11690;51.716;23.066;2022-09-12T01:38:43;1.80;;;1.70;;
23044;SDS011;11690;51.716;23.066;2022-09-12T01:41:18;1.98;;;1.80;;
23044;SDS011;11690;51.716;23.066;2022-09-12T01:44:03;3.78;;;1.88;;
23044;SDS011;11690;51.716;23.066;2022-09-12T01:46:47;1.85;;;1.63;;
23044;SDS011;11690;51.716;23.066;2022-09-12T01:49:40;3.33;;;1.80;;
23044;SDS011;11690;51.716;23.066;2022-09-12T01:52:13;1.63;;;1.40;;
23044;SDS011;11690;51.716;23.066;2022-09-12T01:54:45;4.68;;;1.42;;
23044;SDS011;11690;51.716;23.066;2022-09-12T01:57:17;1.88;;;1.45;;
23044;SDS011;11690;51.716;23.066;2022-09-12T01:59:48;2.63;;;1.52;;
23044;SDS011;11690;51.716;23.066;2022-09-12T02:02:19;1.85;;;1.30;;
23044;SDS011;11690;51.716;23.066;2022-09-12T02:04:59;1.40;;;1.20;;
23044;SDS011;11690;51.716;23.066;2022-09-12T02:10:02;2.47;;;1.45;;
23044;SDS011;11690;51.716;23.066;2022-09-12T02:12:36;4.20;;;1.38;;
23044;SDS011;11690;51.716;23.066;2022-09-12T02:15:07;3.78;;;1.40;;
23044;SDS011;11690;51.716;23.066;2022-09-12T02:17:36;1.42;;;1.23;;
23044;SDS011;11690;51.716;23.066;2022-09-12T02:20:07;1.25;;;1.15;;
23044;SDS011;11690;51.716;23.066;2022-09-12T02:22:57;2.35;;;1.40;;
23044;SDS011;11690;51.716;23.066;2022-09-12T02:25:25;1.33;;;1.23;;
23044;SDS011;11690;51.716;23.066;2022-09-12T02:27:59;1.30;;;1.20;;
23044;SDS011;11690;51.716;23.066;2022-09-12T02:30:30;1.75;;;1.10;;
23044;SDS011;11690;51.716;23.066;2022-09-12T02:36:03;1.30;;;1.20;;
23044;SDS011;11690;51.716;23.066;2022-09-12T02:38:41;1.83;;;1.50;;
23044;SDS011;11690;51.716;23.066;2022-09-12T02:41:12;4.82;;;1.17;;
23044;SDS011;11690;51.716;23.066;2022-09-12T02:43:40;2.10;;;1.30;;
23044;SDS011;11690;51.716;23.066;2022-09-12T02:46:07;4.32;;;1.25;;
23044;SDS011;11690;51.716;23.066;2022-09-12T02:48:39;3.25;;;1.30;;
23044;SDS011;11690;51.716;23.066;2022-09-12T02:51:09;1.52;;;1.10;;
23044;SDS011;11690;51.716;23.066;2022-09-12T02:53:36;1.30;;;1.20;;
23044;SDS011;11690;51.716;23.066;2022-09-12T02:56:08;3.92;;;1.40;;
23044;SDS011;11690;51.716;23.066;2022-09-12T02:58:37;2.47;;;1.15;;
23044;SDS011;11690;51.716;23.066;2022-09-12T03:08:57;1.52;;;1.33;;
23044;SDS011;11690;51.716;23.066;2022-09-12T03:17:06;2.60;;;1.52;;
23044;SDS011;11690;51.716;23.066;2022-09-12T03:23:02;1.92;;;1.40;;
23044;SDS011;11690;51.716;23.066;2022-09-12T03:25:39;2.20;;;1.33;;
23044;SDS011;11690;51.716;23.066;2022-09-12T03:28:10;1.50;;;1.40;;
23044;SDS011;11690;51.716;23.066;2022-09-12T03:30:42;1.52;;;1.42;;
23044;SDS011;11690;51.716;23.066;2022-09-12T03:33:12;2.35;;;1.90;;
23044;SDS011;11690;51.716;23.066;2022-09-12T03:35:40;4.03;;;1.98;;
23044;SDS011;11690;51.716;23.066;2022-09-12T03:38:07;2.35;;;1.60;;
23044;SDS011;11690;51.716;23.066;2022-09-12T03:40:35;2.90;;;1.90;;
23044;SDS011;11690;51.716;23.066;2022-09-12T03:43:03;2.53;;;2.00;;
23044;SDS011;11690;51.716;23.066;2022-09-12T03:45:30;4.30;;;2.08;;
23044;SDS011;11690;51.716;23.066;2022-09-12T03:47:58;2.85;;;2.20;;
23044;SDS011;11690;51.716;23.066;2022-09-12T03:50:24;3.78;;;2.38;;
23044;SDS011;11690;51.716;23.066;2022-09-12T03:52:51;2.90;;;2.30;;
23044;SDS011;11690;51.716;23.066;2022-09-12T03:55:18;4.95;;;2.22;;
23044;SDS011;11690;51.716;23.066;2022-09-12T03:57:45;2.60;;;2.08;;
23044;SDS011;11690;51.716;23.066;2022-09-12T04:00:12;2.40;;;1.90;;
23044;SDS011;11690;51.716;23.066;2022-09-12T04:02:45;2.22;;;2.00;;
23044;SDS011;11690;51.716;23.066;2022-09-12T04:05:12;2.78;;;2.10;;
23044;SDS011;11690;51.716;23.066;2022-09-12T04:07:39;2.95;;;2.20;;
23044;SDS011;11690;51.716;23.066;2022-09-12T04:10:06;3.38;;;2.10;;
23044;SDS011;11690;51.716;23.066;2022-09-12T04:12:35;3.47;;;2.28;;
23044;SDS011;11690;51.716;23.066;2022-09-12T04:15:03;4.38;;;2.13;;
23044;SDS011;11690;51.716;23.066;2022-09-12T04:17:30;3.58;;;2.13;;
23044;SDS011;11690;51.716;23.066;2022-09-12T04:19:57;3.35;;;2.17;;
23044;SDS011;11690;51.716;23.066;2022-09-12T04:22:24;4.10;;;2.28;;
23044;SDS011;11690;51.716;23.066;2022-09-12T04:24:51;2.40;;;2.10;;
23044;SDS011;11690;51.716;23.066;2022-09-12T04:27:18;3.03;;;2.28;;
23044;SDS011;11690;51.716;23.066;2022-09-12T04:29:45;4.18;;;2.45;;
23044;SDS011;11690;51.716;23.066;2022-09-12T04:32:12;2.50;;;2.28;;
23044;SDS011;11690;51.716;23.066;2022-09-12T04:34:40;3.85;;;2.90;;
23044;SDS011;11690;51.716;23.066;2022-09-12T04:37:07;3.05;;;2.38;;
23044;SDS011;11690;51.716;23.066;2022-09-12T04:39:34;3.33;;;2.60;;
23044;SDS011;11690;51.716;23.066;2022-09-12T04:42:01;3.03;;;2.50;;
23044;SDS011;11690;51.716;23.066;2022-09-12T04:44:30;4.00;;;2.70;;
23044;SDS011;11690;51.716;23.066;2022-09-12T04:46:57;11.65;;;5.32;;
23044;SDS011;11690;51.716;23.066;2022-09-12T04:49:24;3.15;;;2.70;;
23044;SDS011;11690;51.716;23.066;2022-09-12T04:51:51;3.20;;;2.30;;
23044;SDS011;11690;51.716;23.066;2022-09-12T04:54:19;5.68;;;2.88;;
23044;SDS011;11690;51.716;23.066;2022-09-12T04:56:47;2.88;;;2.50;;
23044;SDS011;11690;51.716;23.066;2022-09-12T04:59:15;4.47;;;3.13;;
23044;SDS011;11690;51.716;23.066;2022-09-12T05:01:43;8.13;;;4.57;;
23044;SDS011;11690;51.716;23.066;2022-09-12T05:04:10;4.30;;;2.63;;
23044;SDS011;11690;51.716;23.066;2022-09-12T05:06:40;8.30;;;4.28;;
23044;SDS011;11690;51.716;23.066;2022-09-12T05:09:09;3.42;;;2.67;;
23044;SDS011;11690;51.716;23.066;2022-09-12T05:11:38;6.15;;;2.55;;
23044;SDS011;11690;51.716;23.066;2022-09-12T05:14:26;3.45;;;2.60;;
23044;SDS011;11690;51.716;23.066;2022-09-12T05:16:54;3.92;;;2.33;;
23044;SDS011;11690;51.716;23.066;2022-09-12T05:19:25;3.30;;;2.20;;
23044;SDS011;11690;51.716;23.066;2022-09-12T05:21:53;4.00;;;2.30;;
23044;SDS011;11690;51.716;23.066;2022-09-12T05:24:20;3.28;;;2.25;;
23044;SDS011;11690;51.716;23.066;2022-09-12T05:26:47;3.15;;;2.33;;
23044;SDS011;11690;51.716;23.066;2022-09-12T05:29:14;4.10;;;2.42;;
23044;SDS011;11690;51.716;23.066;2022-09-12T05:31:41;3.90;;;2.00;;
23044;SDS011;11690;51.716;23.066;2022-09-12T05:34:08;3.53;;;1.90;;
23044;SDS011;11690;51.716;23.066;2022-09-12T05:36:36;1.60;;;1.50;;
23044;SDS011;11690;51.716;23.066;2022-09-12T05:39:04;1.77;;;1.50;;
23044;SDS011;11690;51.716;23.066;2022-09-12T05:41:31;1.40;;;1.30;;
23044;SDS011;11690;51.716;23.066;2022-09-12T05:44:00;2.03;;;1.80;;
23044;SDS011;11690;51.716;23.066;2022-09-12T05:46:29;2.65;;;1.65;;
23044;SDS011;11690;51.716;23.066;2022-09-12T05:49:01;1.40;;;1.30;;
23044;SDS011;11690;51.716;23.066;2022-09-12T05:51:31;2.10;;;1.20;;
23044;SDS011;11690;51.716;23.066;2022-09-12T05:54:01;2.15;;;1.63;;
23044;SDS011;11690;51.716;23.066;2022-09-12T05:56:30;1.50;;;1.10;;
23044;SDS011;11690;51.716;23.066;2022-09-12T05:59:03;1.48;;;1.38;;
23044;SDS011;11690;51.716;23.066;2022-09-12T06:01:31;1.38;;;0.90;;
23044;SDS011;11690;51.716;23.066;2022-09-12T06:04:00;1.95;;;1.50;;
23044;SDS011;11690;51.716;23.066;2022-09-12T06:06:29;2.08;;;1.17;;
23044;SDS011;11690;51.716;23.066;2022-09-12T06:08:58;1.83;;;1.20;;
23044;SDS011;11690;51.716;23.066;2022-09-12T06:11:27;1.50;;;1.27;;
23044;SDS011;11690;51.716;23.066;2022-09-12T06:13:56;4.32;;;1.45;;
23044;SDS011;11690;51.716;23.066;2022-09-12T06:16:24;1.52;;;1.17;;
23044;SDS011;11690;51.716;23.066;2022-09-12T06:18:55;2.03;;;0.90;;
23044;SDS011;11690;51.716;23.066;2022-09-12T06:21:24;2.35;;;1.33;;
23044;SDS011;11690;51.716;23.066;2022-09-12T06:23:52;1.98;;;1.20;;
23044;SDS011;11690;51.716;23.066;2022-09-12T06:26:20;1.73;;;1.35;;
23044;SDS011;11690;51.716;23.066;2022-09-12T06:28:50;2.50;;;1.77;;
23044;SDS011;11690;51.716;23.066;2022-09-12T06:31:19;2.35;;;1.25;;
23044;SDS011;11690;51.716;23.066;2022-09-12T06:33:52;2.55;;;1.20;;
23044;SDS011;11690;51.716;23.066;2022-09-12T06:36:20;4.40;;;1.17;;
23044;SDS011;11690;51.716;23.066;2022-09-12T06:38:53;2.08;;;1.33;;
23044;SDS011;11690;51.716;23.066;2022-09-12T06:41:24;1.77;;;1.20;;
23044;SDS011;11690;51.716;23.066;2022-09-12T06:43:51;1.15;;;1.05;;
23044;SDS011;11690;51.716;23.066;2022-09-12T06:46:18;1.15;;;1.00;;
23044;SDS011;11690;51.716;23.066;2022-09-12T06:48:46;1.45;;;1.20;;
23044;SDS011;11690;51.716;23.066;2022-09-12T06:51:14;5.97;;;1.40;;
23044;SDS011;11690;51.716;23.066;2022-09-12T06:53:42;3.00;;;1.60;;
23044;SDS011;11690;51.716;23.066;2022-09-12T06:58:46;1.50;;;1.20;;
23044;SDS011;11690;51.716;23.066;2022-09-12T07:01:19;1.23;;;1.02;;
23044;SDS011;11690;51.716;23.066;2022-09-12T07:03:51;1.40;;;1.08;;
23044;SDS011;11690;51.716;23.066;2022-09-12T07:06:20;2.60;;;1.27;;
23044;SDS011;11690;51.716;23.066;2022-09-12T07:08:49;1.05;;;0.95;;
23044;SDS011;11690;51.716;23.066;2022-09-12T07:11:20;2.25;;;1.48;;
23044;SDS011;11690;51.716;23.066;2022-09-12T07:13:50;2.20;;;1.10;;
23044;SDS011;11690;51.716;23.066;2022-09-12T07:16:18;1.60;;;1.10;;
23044;SDS011;11690;51.716;23.066;2022-09-12T07:18:55;1.73;;;1.25;;
23044;SDS011;11690;51.716;23.066;2022-09-12T07:21:24;3.10;;;1.40;;
23044;SDS011;11690;51.716;23.066;2022-09-12T07:23:51;1.58;;;1.30;;
23044;SDS011;11690;51.716;23.066;2022-09-12T07:26:20;1.48;;;1.00;;
23044;SDS011;11690;51.716;23.066;2022-09-12T07:28:51;1.42;;;1.10;;
23044;SDS011;11690;51.716;23.066;2022-09-12T07:31:38;1.80;;;1.42;;
23044;SDS011;11690;51.716;23.066;2022-09-12T07:34:05;2.80;;;1.10;;
23044;SDS011;11690;51.716;23.066;2022-09-12T07:36:32;2.28;;;1.15;;
23044;SDS011;11690;51.716;23.066;2022-09-12T07:38:59;1.30;;;1.10;;
23044;SDS011;11690;51.716;23.066;2022-09-12T07:41:28;1.33;;;1.20;;
23044;SDS011;11690;51.716;23.066;2022-09-12T07:43:57;1.10;;;1.00;;
23044;SDS011;11690;51.716;23.066;2022-09-12T07:46:26;1.27;;;0.90;;
23044;SDS011;11690;51.716;23.066;2022-09-12T07:48:56;0.90;;;0.90;;
23044;SDS011;11690;51.716;23.066;2022-09-12T07:51:24;1.15;;;0.95;;
23044;SDS011;11690;51.716;23.066;2022-09-12T07:53:52;1.40;;;1.10;;
23044;SDS011;11690;51.716;23.066;2022-09-12T07:56:20;3.67;;;1.70;;
23044;SDS011;11690;51.716;23.066;2022-09-12T07:58:53;1.42;;;1.05;;
23044;SDS011;11690;51.716;23.066;2022-09-12T08:01:20;3.45;;;1.27;;
23044;SDS011;11690;51.716;23.066;2022-09-12T08:03:53;2.05;;;1.20;;
23044;SDS011;11690;51.716;23.066;2022-09-12T08:06:24;2.65;;;1.70;;
23044;SDS011;11690;51.716;23.066;2022-09-12T08:08:53;2.05;;;1.40;;
23044;SDS011;11690;51.716;23.066;2022-09-12T08:11:21;2.58;;;1.20;;
23044;SDS011;11690;51.716;23.066;2022-09-12T08:13:49;1.27;;;1.02;;
23044;SDS011;11690;51.716;23.066;2022-09-12T08:16:22;1.33;;;1.23;;
23044;SDS011;11690;51.716;23.066;2022-09-12T08:18:51;1.33;;;1.23;;
23044;SDS011;11690;51.716;23.066;2022-09-12T08:21:19;1.25;;;1.15;;
23044;SDS011;11690;51.716;23.066;2022-09-12T08:23:51;1.55;;;1.45;;
23044;SDS011;11690;51.716;23.066;2022-09-12T08:26:19;2.65;;;1.20;;
23044;SDS011;11690;51.716;23.066;2022-09-12T08:28:46;2.13;;;1.42;;
23044;SDS011;11690;51.716;23.066;2022-09-12T08:31:16;1.95;;;1.70;;
23044;SDS011;11690;51.716;23.066;2022-09-12T08:33:44;1.35;;;1.25;;
23044;SDS011;11690;51.716;23.066;2022-09-12T08:36:13;1.42;;;1.33;;
23044;SDS011;11690;51.716;23.066;2022-09-12T08:38:42;2.00;;;1.48;;
23044;SDS011;11690;51.716;23.066;2022-09-12T08:41:18;1.52;;;1.30;;
23044;SDS011;11690;51.716;23.066;2022-09-12T08:49:14;1.65;;;1.10;;
23044;SDS011;11690;51.716;23.066;2022-09-12T08:51:49;1.90;;;1.58;;
23044;SDS011;11690;51.716;23.066;2022-09-12T08:54:24;6.15;;;1.65;;
23044;SDS011;11690;51.716;23.066;2022-09-12T08:57:03;2.17;;;1.40;;
23044;SDS011;11690;51.716;23.066;2022-09-12T08:59:41;1.92;;;1.65;;
23044;SDS011;11690;51.716;23.066;2022-09-12T09:05:06;2.22;;;1.70;;
23044;SDS011;11690;51.716;23.066;2022-09-12T09:07:59;3.83;;;1.58;;
23044;SDS011;11690;51.716;23.066;2022-09-12T09:19:30;1.58;;;1.38;;
23044;SDS011;11690;51.716;23.066;2022-09-12T09:22:07;1.65;;;1.55;;
23044;SDS011;11690;51.716;23.066;2022-09-12T09:24:40;2.03;;;1.55;;
23044;SDS011;11690;51.716;23.066;2022-09-12T09:27:14;2.10;;;1.90;;
23044;SDS011;11690;51.716;23.066;2022-09-12T09:30:16;1.80;;;1.70;;
23044;SDS011;11690;51.716;23.066;2022-09-12T09:32:46;2.05;;;1.70;;
23044;SDS011;11690;51.716;23.066;2022-09-12T09:35:17;1.90;;;1.80;;
23044;SDS011;11690;51.716;23.066;2022-09-12T09:40:44;2.25;;;1.80;;
23044;SDS011;11690;51.716;23.066;2022-09-12T09:45:49;2.65;;;1.88;;
23044;SDS011;11690;51.716;23.066;2022-09-12T09:48:24;2.67;;;1.60;;
23044;SDS011;11690;51.716;23.066;2022-09-12T09:50:57;1.95;;;1.75;;
23044;SDS011;11690;51.716;23.066;2022-09-12T09:56:34;2.10;;;1.75;;
23044;SDS011;11690;51.716;23.066;2022-09-12T09:59:15;2.30;;;1.58;;
23044;SDS011;11690;51.716;23.066;2022-09-12T10:01:47;2.00;;;1.80;;
23044;SDS011;11690;51.716;23.066;2022-09-12T10:04:21;3.88;;;1.90;;
23044;SDS011;11690;51.716;23.066;2022-09-12T10:06:50;2.03;;;1.90;;
23044;SDS011;11690;51.716;23.066;2022-09-12T10:09:19;2.50;;;1.80;;
23044;SDS011;11690;51.716;23.066;2022-09-12T10:11:51;2.17;;;1.98;;
23044;SDS011;11690;51.716;23.066;2022-09-12T10:16:56;2.45;;;2.25;;
23044;SDS011;11690;51.716;23.066;2022-09-12T10:19:37;3.90;;;2.20;;
23044;SDS011;11690;51.716;23.066;2022-09-12T10:22:06;6.63;;;1.90;;
23044;SDS011;11690;51.716;23.066;2022-09-12T10:24:37;2.20;;;2.00;;
23044;SDS011;11690;51.716;23.066;2022-09-12T10:27:08;3.35;;;1.90;;
23044;SDS011;11690;51.716;23.066;2022-09-12T10:29:47;2.38;;;2.15;;
23044;SDS011;11690;51.716;23.066;2022-09-12T10:32:19;2.38;;;1.90;;
23044;SDS011;11690;51.716;23.066;2022-09-12T10:34:57;2.38;;;2.15;;
23044;SDS011;11690;51.716;23.066;2022-09-12T10:37:33;2.53;;;1.90;;
23044;SDS011;11690;51.716;23.066;2022-09-12T10:40:03;4.03;;;2.35;;
23044;SDS011;11690;51.716;23.066;2022-09-12T10:42:50;2.50;;;2.30;;
23044;SDS011;11690;51.716;23.066;2022-09-12T10:45:19;2.88;;;2.08;;
23044;SDS011;11690;51.716;23.066;2022-09-12T10:47:47;2.38;;;2.10;;
23044;SDS011;11690;51.716;23.066;2022-09-12T10:50:18;2.25;;;2.05;;
23044;SDS011;11690;51.716;23.066;2022-09-12T10:52:49;3.80;;;2.50;;
23044;SDS011;11690;51.716;23.066;2022-09-12T10:55:16;3.60;;;2.50;;
23044;SDS011;11690;51.716;23.066;2022-09-12T11:00:19;2.92;;;2.33;;
23044;SDS011;11690;51.716;23.066;2022-09-12T11:02:56;3.70;;;2.47;;
23044;SDS011;11690;51.716;23.066;2022-09-12T11:14:16;3.08;;;2.78;;
23044;SDS011;11690;51.716;23.066;2022-09-12T11:17:24;2.63;;;2.42;;
23044;SDS011;11690;51.716;23.066;2022-09-12T11:36:53;3.03;;;2.17;;
23044;SDS011;11690;51.716;23.066;2022-09-12T11:41:38;2.50;;;2.30;;
23044;SDS011;11690;51.716;23.066;2022-09-12T11:44:25;2.28;;;2.00;;
23044;SDS011;11690;51.716;23.066;2022-09-12T11:46:55;3.03;;;2.28;;
23044;SDS011;11690;51.716;23.066;2022-09-12T11:52:23;2.58;;;2.38;;
23044;SDS011;11690;51.716;23.066;2022-09-12T12:00:23;3.20;;;2.67;;
23044;SDS011;11690;51.716;23.066;2022-09-12T12:05:38;3.35;;;2.60;;
23044;SDS011;11690;51.716;23.066;2022-09-12T12:08:07;5.38;;;3.00;;
23044;SDS011;11690;51.716;23.066;2022-09-12T12:10:40;3.60;;;2.65;;
23044;SDS011;11690;51.716;23.066;2022-09-12T12:15:50;5.57;;;3.20;;
23044;SDS011;11690;51.716;23.066;2022-09-12T12:18:27;3.45;;;3.15;;
23044;SDS011;11690;51.716;23.066;2022-09-12T12:20:55;3.83;;;3.17;;
23044;SDS011;11690;51.716;23.066;2022-09-12T12:23:27;3.95;;;2.83;;
23044;SDS011;11690;51.716;23.066;2022-09-12T12:25:56;4.20;;;3.03;;
23044;SDS011;11690;51.716;23.066;2022-09-12T12:31:07;2.83;;;2.53;;
23044;SDS011;11690;51.716;23.066;2022-09-12T12:36:03;2.72;;;2.50;;
23044;SDS011;11690;51.716;23.066;2022-09-12T12:38:33;2.70;;;2.50;;
23044;SDS011;11690;51.716;23.066;2022-09-12T12:43:44;2.60;;;2.40;;
23044;SDS011;11690;51.716;23.066;2022-09-12T12:46:19;4.88;;;2.38;;
23044;SDS011;11690;51.716;23.066;2022-09-12T12:48:49;2.65;;;2.33;;
23044;SDS011;11690;51.716;23.066;2022-09-12T13:00:00;2.72;;;2.28;;
23044;SDS011;11690;51.716;23.066;2022-09-12T13:02:32;2.70;;;2.47;;
23044;SDS011;11690;51.716;23.066;2022-09-12T13:05:03;4.10;;;2.78;;
23044;SDS011;11690;51.716;23.066;2022-09-12T13:07:33;3.50;;;2.35;;
23044;SDS011;11690;51.716;23.066;2022-09-12T13:10:02;2.50;;;2.30;;
23044;SDS011;11690;51.716;23.066;2022-09-12T13:12:34;2.20;;;2.00;;
23044;SDS011;11690;51.716;23.066;2022-09-12T13:15:27;2.90;;;2.60;;
23044;SDS011;11690;51.716;23.066;2022-09-12T13:18:09;1.95;;;1.75;;
23044;SDS011;11690;51.716;23.066;2022-09-12T13:20:52;1.70;;;1.60;;
23044;SDS011;11690;51.716;23.066;2022-09-12T13:23:22;2.30;;;1.67;;
23044;SDS011;11690;51.716;23.066;2022-09-12T13:25:51;2.00;;;1.80;;
23044;SDS011;11690;51.716;23.066;2022-09-12T13:28:20;2.40;;;1.90;;
23044;SDS011;11690;51.716;23.066;2022-09-12T13:30:53;2.03;;;1.83;;
23044;SDS011;11690;51.716;23.066;2022-09-12T13:34:04;2.38;;;2.00;;
23044;SDS011;11690;51.716;23.066;2022-09-12T13:42:03;3.28;;;2.40;;
23044;SDS011;11690;51.716;23.066;2022-09-12T13:44:42;1.90;;;1.70;;
23044;SDS011;11690;51.716;23.066;2022-09-12T13:47:32;1.90;;;1.80;;
23044;SDS011;11690;51.716;23.066;2022-09-12T13:50:02;1.70;;;1.60;;
23044;SDS011;11690;51.716;23.066;2022-09-12T13:52:31;2.13;;;1.92;;
23044;SDS011;11690;51.716;23.066;2022-09-12T13:54:59;3.10;;;1.60;;
23044;SDS011;11690;51.716;23.066;2022-09-12T13:57:29;2.25;;;1.70;;
23044;SDS011;11690;51.716;23.066;2022-09-12T13:59:58;3.08;;;1.60;;
23044;SDS011;11690;51.716;23.066;2022-09-12T14:02:27;1.77;;;1.60;;
23044;SDS011;11690;51.716;23.066;2022-09-12T14:04:54;3.55;;;2.20;;
23044;SDS011;11690;51.716;23.066;2022-09-12T14:10:14;1.50;;;1.38;;
23044;SDS011;11690;51.716;23.066;2022-09-12T14:12:45;1.50;;;1.40;;
23044;SDS011;11690;51.716;23.066;2022-09-12T14:15:17;1.05;;;1.00;;
23044;SDS011;11690;51.716;23.066;2022-09-12T14:17:50;1.90;;;1.33;;
23044;SDS011;11690;51.716;23.066;2022-09-12T14:20:18;2.15;;;1.08;;
23044;SDS011;11690;51.716;23.066;2022-09-12T14:22:46;1.80;;;1.10;;
23044;SDS011;11690;51.716;23.066;2022-09-12T14:25:21;1.38;;;1.23;;
23044;SDS011;11690;51.716;23.066;2022-09-12T14:27:52;1.90;;;1.70;;
23044;SDS011;11690;51.716;23.066;2022-09-12T14:30:24;2.00;;;1.58;;
23044;SDS011;11690;51.716;23.066;2022-09-12T14:38:36;2.33;;;1.75;;
23044;SDS011;11690;51.716;23.066;2022-09-12T14:41:07;2.45;;;2.25;;
23044;SDS011;11690;51.716;23.066;2022-09-12T14:43:36;4.72;;;2.83;;
23044;SDS011;11690;51.716;23.066;2022-09-12T14:46:05;5.18;;;2.90;;
23044;SDS011;11690;51.716;23.066;2022-09-12T14:48:35;3.90;;;2.60;;
23044;SDS011;11690;51.716;23.066;2022-09-12T14:51:03;3.45;;;2.70;;
23044;SDS011;11690;51.716;23.066;2022-09-12T14:53:32;3.17;;;2.80;;
23044;SDS011;11690;51.716;23.066;2022-09-12T14:56:08;3.30;;;2.70;;
23044;SDS011;11690;51.716;23.066;2022-09-12T14:58:39;3.08;;;2.78;;
23044;SDS011;11690;51.716;23.066;2022-09-12T15:06:38;6.57;;;4.25;;
23044;SDS011;11690;51.716;23.066;2022-09-12T15:09:06;9.77;;;5.78;;
23044;SDS011;11690;51.716;23.066;2022-09-12T15:11:38;6.40;;;5.78;;
23044;SDS011;11690;51.716;23.066;2022-09-12T15:14:05;7.60;;;6.00;;
23044;SDS011;11690;51.716;23.066;2022-09-12T15:16:41;9.68;;;6.47;;
23044;SDS011;11690;51.716;23.066;2022-09-12T15:19:08;9.05;;;7.70;;
23044;SDS011;11690;51.716;23.066;2022-09-12T15:21:35;7.88;;;6.57;;
23044;SDS011;11690;51.716;23.066;2022-09-12T15:24:03;8.43;;;6.25;;
23044;SDS011;11690;51.716;23.066;2022-09-12T15:26:30;7.53;;;5.38;;
23044;SDS011;11690;51.716;23.066;2022-09-12T15:28:57;8.52;;;4.60;;
23044;SDS011;11690;51.716;23.066;2022-09-12T15:31:28;5.93;;;4.53;;
23044;SDS011;11690;51.716;23.066;2022-09-12T15:33:57;7.40;;;5.40;;
23044;SDS011;11690;51.716;23.066;2022-09-12T15:36:25;6.32;;;5.55;;
23044;SDS011;11690;51.716;23.066;2022-09-12T15:38:54;9.07;;;5.55;;
23044;SDS011;11690;51.716;23.066;2022-09-12T15:41:22;5.90;;;4.60;;
23044;SDS011;11690;51.716;23.066;2022-09-12T15:43:53;5.55;;;4.13;;
23044;SDS011;11690;51.716;23.066;2022-09-12T15:46:20;5.03;;;4.50;;
23044;SDS011;11690;51.716;23.066;2022-09-12T15:48:47;6.43;;;4.65;;
23044;SDS011;11690;51.716;23.066;2022-09-12T15:51:16;6.38;;;4.72;;
23044;SDS011;11690;51.716;23.066;2022-09-12T15:53:45;4.93;;;4.35;;
23044;SDS011;11690;51.716;23.066;2022-09-12T15:56:16;6.07;;;4.10;;
23044;SDS011;11690;51.716;23.066;2022-09-12T15:58:44;4.18;;;3.78;;
23044;SDS011;11690;51.716;23.066;2022-09-12T16:01:25;5.03;;;3.90;;
23044;SDS011;11690;51.716;23.066;2022-09-12T16:03:52;4.82;;;3.67;;
23044;SDS011;11690;51.716;23.066;2022-09-12T16:06:19;4.40;;;3.15;;
23044;SDS011;11690;51.716;23.066;2022-09-12T16:08:47;4.78;;;4.05;;
23044;SDS011;11690;51.716;23.066;2022-09-12T16:11:25;5.40;;;4.00;;
23044;SDS011;11690;51.716;23.066;2022-09-12T16:13:52;6.13;;;4.20;;
23044;SDS011;11690;51.716;23.066;2022-09-12T16:16:20;4.40;;;3.90;;
23044;SDS011;11690;51.716;23.066;2022-09-12T16:18:47;6.43;;;4.13;;
23044;SDS011;11690;51.716;23.066;2022-09-12T16:21:14;5.07;;;4.10;;
23044;SDS011;11690;51.716;23.066;2022-09-12T16:23:42;4.18;;;3.40;;
23044;SDS011;11690;51.716;23.066;2022-09-12T16:26:09;6.10;;;3.97;;
23044;SDS011;11690;51.716;23.066;2022-09-12T16:28:36;3.72;;;3.42;;
23044;SDS011;11690;51.716;23.066;2022-09-12T16:31:04;5.10;;;3.88;;
23044;SDS011;11690;51.716;23.066;2022-09-12T16:33:33;4.10;;;3.63;;
23044;SDS011;11690;51.716;23.066;2022-09-12T16:36:04;6.47;;;3.85;;
23044;SDS011;11690;51.716;23.066;2022-09-12T16:38:33;5.72;;;3.92;;
23044;SDS011;11690;51.716;23.066;2022-09-12T16:41:02;4.47;;;3.58;;
23044;SDS011;11690;51.716;23.066;2022-09-12T16:43:30;4.20;;;3.80;;
23044;SDS011;11690;51.716;23.066;2022-09-12T16:46:01;5.50;;;3.97;;
23044;SDS011;11690;51.716;23.066;2022-09-12T16:48:32;4.65;;;3.65;;
23044;SDS011;11690;51.716;23.066;2022-09-12T16:51:01;6.00;;;4.13;;
23044;SDS011;11690;51.716;23.066;2022-09-12T16:53:29;5.75;;;3.78;;
23044;SDS011;11690;51.716;23.066;2022-09-12T16:55:57;3.97;;;3.15;;
23044;SDS011;11690;51.716;23.066;2022-09-12T16:58:24;3.80;;;3.28;;
23044;SDS011;11690;51.716;23.066;2022-09-12T17:01:01;3.97;;;3.53;;
23044;SDS011;11690;51.716;23.066;2022-09-12T17:03:30;4.75;;;2.88;;
23044;SDS011;11690;51.716;23.066;2022-09-12T17:06:07;3.28;;;2.92;;
23044;SDS011;11690;51.716;23.066;2022-09-12T17:08:37;5.53;;;3.25;;
23044;SDS011;11690;51.716;23.066;2022-09-12T17:11:06;5.90;;;3.35;;
23044;SDS011;11690;51.716;23.066;2022-09-12T17:13:35;3.58;;;3.22;;
23044;SDS011;11690;51.716;23.066;2022-09-12T17:16:22;3.58;;;3.15;;
23044;SDS011;11690;51.716;23.066;2022-09-12T17:18:50;3.53;;;3.10;;
23044;SDS011;11690;51.716;23.066;2022-09-12T17:21:17;5.22;;;3.30;;
23044;SDS011;11690;51.716;23.066;2022-09-12T17:23:45;5.15;;;3.55;;